Time;durP1;ratioP1;P1;durP2;ratioP2;P2;SDS_P1;SDS_P2;PMS_P1;PMS_P2;Temp;Humidity;BMP_temperature;BMP_pressure;BME280_temperature;BME280_humidity;BME280_pressure;Samples;Min_cycle;Max_cycle;Signal;HPM_P1;HPM_P2
2021/06/14 00:00:36;;;;;;;614.60;461.70;;;;;;;;;;4979247;28;20026;-75
2021/06/14 00:03:02;;;;;;;639.00;482.50;;;;;;;;;;4985868;28;20050;-74
2021/06/14 00:05:31;;;;;;;647.22;499.23;;;;;;;;;;4994405;28;20080;-75
2021/06/14 00:07:57;;;;;;;651.05;507.95;;;;;;;;;;4975060;28;20023;-74
2021/06/14 00:10:25;;;;;;;653.15;507.55;;;;;;;;;;5032583;28;20421;-74
2021/06/14 00:12:51;;;;;;;602.30;456.60;;;;;;;;;;5013319;28;20037;-74
2021/06/14 00:15:18;;;;;;;552.45;422.30;;;;;;;;;;4957723;28;20050;-74
2021/06/14 00:17:44;;;;;;;548.10;408.60;;;;;;;;;;4970620;28;20038;-74
2021/06/14 00:20:11;;;;;;;536.30;401.60;;;;;;;;;;4998498;28;20016;-74
2021/06/14 00:22:40;;;;;;;536.95;402.17;;;;;;;;;;5004622;28;20026;-74
2021/06/14 00:25:08;;;;;;;543.47;407.73;;;;;;;;;;4978392;28;20019;-74
2021/06/14 00:27:34;;;;;;;555.03;411.55;;;;;;;;;;4983838;28;20034;-74
2021/06/14 00:30:00;;;;;;;528.15;390.08;;;;;;;;;;4973310;28;20414;-74
2021/06/14 00:32:35;;;;;;;541.60;411.17;;;;;;;;;;4998697;28;20065;-74
2021/06/14 00:35:01;;;;;;;533.97;399.50;;;;;;;;;;4981243;28;20429;-74
2021/06/14 00:37:27;;;;;;;559.95;413.80;;;;;;;;;;4990118;28;20030;-74
2021/06/14 00:39:54;;;;;;;516.83;382.05;;;;;;;;;;4972827;28;20049;-74
2021/06/14 00:42:20;;;;;;;515.00;388.88;;;;;;;;;;4966555;28;20080;-73
2021/06/14 00:44:49;;;;;;;511.30;384.77;;;;;;;;;;4985433;28;20018;-74
2021/06/14 00:47:15;;;;;;;512.05;381.65;;;;;;;;;;4983882;28;20031;-74
2021/06/14 00:49:41;;;;;;;511.92;390.00;;;;;;;;;;4981037;28;20074;-74
2021/06/14 00:52:07;;;;;;;505.55;386.88;;;;;;;;;;4989506;28;20033;-73
2021/06/14 00:54:33;;;;;;;502.55;386.85;;;;;;;;;;4991758;28;20061;-74
2021/06/14 00:57:02;;;;;;;503.15;385.85;;;;;;;;;;5023542;28;20063;-75
2021/06/14 00:59:29;;;;;;;503.25;388.30;;;;;;;;;;4997839;28;20380;-74
2021/06/14 01:01:55;;;;;;;504.27;388.67;;;;;;;;;;4992383;28;20389;-74
2021/06/14 01:04:21;;;;;;;505.65;388.55;;;;;;;;;;5023872;28;20034;-73
2021/06/14 01:06:48;;;;;;;511.98;400.10;;;;;;;;;;5004094;28;20022;-75
2021/06/14 01:09:34;;;;;;;519.38;402.98;;;;;;;;;;4985222;28;20037;-74
2021/06/14 01:12:03;;;;;;;517.88;400.20;;;;;;;;;;4994251;28;20038;-73
2021/06/14 01:14:29;;;;;;;521.55;406.33;;;;;;;;;;4987310;28;20101;-74
2021/06/14 01:17:11;;;;;;;521.67;405.20;;;;;;;;;;4987704;28;20130;-74
2021/06/14 01:20:01;;;;;;;517.10;404.33;;;;;;;;;;4990578;28;20466;-75
2021/06/14 01:22:46;;;;;;;514.95;397.58;;;;;;;;;;4971202;28;20153;-73
2021/06/14 01:25:27;;;;;;;515.80;396.70;;;;;;;;;;4973247;28;20033;-75
2021/06/14 01:27:56;;;;;;;520.67;401.80;;;;;;;;;;4978653;28;20026;-74
2021/06/14 01:30:30;;;;;;;519.85;403.08;;;;;;;;;;4967560;28;20054;-74
2021/06/14 01:32:56;;;;;;;518.80;403.90;;;;;;;;;;4985148;28;20034;-74
2021/06/14 01:35:28;;;;;;;520.25;401.60;;;;;;;;;;4989179;28;20427;-75
2021/06/14 01:37:57;;;;;;;526.10;411.33;;;;;;;;;;4993651;28;20041;-74
2021/06/14 01:40:23;;;;;;;521.63;409.85;;;;;;;;;;4990798;28;20102;-75
2021/06/14 01:43:08;;;;;;;518.15;405.00;;;;;;;;;;4982109;28;20092;-74
2021/06/14 01:45:36;;;;;;;558.55;403.02;;;;;;;;;;5009976;28;20079;-74
2021/06/14 01:48:03;;;;;;;518.95;406.85;;;;;;;;;;4978454;28;20030;-73
2021/06/14 01:50:30;;;;;;;515.55;402.17;;;;;;;;;;4972769;28;20030;-73
2021/06/14 01:52:57;;;;;;;513.60;400.15;;;;;;;;;;4965531;28;20026;-75
2021/06/14 01:55:45;;;;;;;516.13;401.92;;;;;;;;;;4989480;28;20499;-75
2021/06/14 01:58:12;;;;;;;514.60;398.08;;;;;;;;;;4990620;28;20022;-74
2021/06/14 02:00:39;;;;;;;514.40;400.45;;;;;;;;;;5009563;28;20492;-75
2021/06/14 02:03:05;;;;;;;515.70;398.98;;;;;;;;;;4990819;28;20018;-74
2021/06/14 02:05:31;;;;;;;517.63;402.85;;;;;;;;;;4988717;28;20030;-75
2021/06/14 02:08:04;;;;;;;517.83;404.30;;;;;;;;;;4987803;28;20036;-74
2021/06/14 02:10:30;;;;;;;516.17;402.70;;;;;;;;;;4990483;28;20026;-75
2021/06/14 02:12:57;;;;;;;517.67;407.58;;;;;;;;;;4981258;28;20126;-75
2021/06/14 02:15:23;;;;;;;514.22;406.23;;;;;;;;;;4973098;28;20135;-74
2021/06/14 02:17:50;;;;;;;516.35;406.40;;;;;;;;;;4990147;28;20034;-74
2021/06/14 02:20:22;;;;;;;514.75;403.23;;;;;;;;;;4967058;28;20027;-75
2021/06/14 02:22:48;;;;;;;514.95;399.60;;;;;;;;;;4982991;28;20025;-75
2021/06/14 02:25:15;;;;;;;518.10;410.60;;;;;;;;;;4989400;28;20063;-75
2021/06/14 02:27:41;;;;;;;514.83;400.77;;;;;;;;;;4990297;28;20034;-74
2021/06/14 02:30:28;;;;;;;516.78;398.80;;;;;;;;;;4990386;28;20027;-75
2021/06/14 02:32:54;;;;;;;522.60;408.33;;;;;;;;;;4963911;28;20089;-75
2021/06/14 02:35:22;;;;;;;515.35;395.70;;;;;;;;;;4961916;28;20095;-75
2021/06/14 02:37:52;;;;;;;517.08;397.95;;;;;;;;;;4978067;28;20027;-75
2021/06/14 02:40:21;;;;;;;517.42;392.60;;;;;;;;;;4958269;28;20033;-75
2021/06/14 02:42:53;;;;;;;518.08;396.20;;;;;;;;;;4981879;28;20080;-75
2021/06/14 02:45:19;;;;;;;513.85;389.15;;;;;;;;;;4966580;28;20359;-74
2021/06/14 02:47:47;;;;;;;520.65;390.58;;;;;;;;;;4983649;28;20035;-75
2021/06/14 02:50:15;;;;;;;532.15;399.38;;;;;;;;;;4985604;28;20041;-74
2021/06/14 02:52:41;;;;;;;520.85;383.88;;;;;;;;;;4976717;28;20030;-75
2021/06/14 02:55:13;;;;;;;520.42;380.30;;;;;;;;;;4979482;28;20023;-75
2021/06/14 02:57:40;;;;;;;519.38;384.08;;;;;;;;;;5047828;28;20024;-76
2021/06/14 03:00:08;;;;;;;519.90;388.58;;;;;;;;;;4970591;28;20031;-74
2021/06/14 03:02:34;;;;;;;513.95;380.27;;;;;;;;;;4981563;28;20031;-75
2021/06/14 03:05:02;;;;;;;508.88;373.70;;;;;;;;;;4992904;28;20034;-75
2021/06/14 03:07:28;;;;;;;512.63;380.77;;;;;;;;;;4970812;28;20023;-74
2021/06/14 03:09:54;;;;;;;511.83;374.83;;;;;;;;;;4972599;28;20026;-74
2021/06/14 03:12:20;;;;;;;508.40;375.90;;;;;;;;;;4984022;28;20031;-74
2021/06/14 03:14:47;;;;;;;517.90;383.05;;;;;;;;;;4965689;28;20417;-75
2021/06/14 03:17:20;;;;;;;512.08;368.98;;;;;;;;;;4980089;28;20437;-74
2021/06/14 03:19:46;;;;;;;508.73;369.55;;;;;;;;;;5032842;28;20032;-74
2021/06/14 03:22:12;;;;;;;507.52;366.42;;;;;;;;;;4993181;28;20050;-74
2021/06/14 03:24:42;;;;;;;510.85;378.95;;;;;;;;;;4993463;28;20029;-74
2021/06/14 03:27:09;;;;;;;506.05;364.58;;;;;;;;;;5027234;28;20024;-74
2021/06/14 03:29:42;;;;;;;507.30;374.15;;;;;;;;;;5044694;28;20038;-74
2021/06/14 03:32:08;;;;;;;510.08;372.95;;;;;;;;;;4991036;28;20101;-74
2021/06/14 03:34:36;;;;;;;505.52;363.80;;;;;;;;;;4980151;28;20034;-74
2021/06/14 03:37:02;;;;;;;504.65;363.38;;;;;;;;;;4959765;28;20085;-73
2021/06/14 03:39:28;;;;;;;506.10;361.92;;;;;;;;;;4987367;28;20386;-73
2021/06/14 03:41:56;;;;;;;508.42;367.67;;;;;;;;;;5041964;28;20470;-75
2021/06/14 03:44:22;;;;;;;508.58;363.48;;;;;;;;;;4983624;28;20363;-73
2021/06/14 03:46:49;;;;;;;511.67;363.70;;;;;;;;;;5019061;28;20052;-73
2021/06/14 03:49:15;;;;;;;508.17;369.33;;;;;;;;;;4968155;28;20034;-74
2021/06/14 03:51:41;;;;;;;506.35;361.00;;;;;;;;;;4985126;28;20094;-74
2021/06/14 03:54:09;;;;;;;509.88;370.85;;;;;;;;;;4992468;28;20497;-74
2021/06/14 03:56:36;;;;;;;507.63;365.17;;;;;;;;;;4989812;28;20018;-74
2021/06/14 03:59:03;;;;;;;506.02;358.25;;;;;;;;;;4985419;28;20588;-74
2021/06/14 04:01:29;;;;;;;508.08;360.38;;;;;;;;;;4969067;28;20027;-74
2021/06/14 04:04:11;;;;;;;504.30;357.08;;;;;;;;;;4992824;28;20027;-74
2021/06/14 04:06:38;;;;;;;506.75;364.33;;;;;;;;;;4986358;28;20493;-74
2021/06/14 04:09:05;;;;;;;505.20;363.38;;;;;;;;;;4981919;28;20150;-73
2021/06/14 04:11:31;;;;;;;501.90;364.60;;;;;;;;;;4990997;28;20038;-74
2021/06/14 04:13:57;;;;;;;502.40;363.88;;;;;;;;;;4991345;28;20034;-74
2021/06/14 04:16:26;;;;;;;500.83;358.00;;;;;;;;;;4968359;28;20031;-73
2021/06/14 04:18:53;;;;;;;500.63;361.30;;;;;;;;;;4992604;28;20030;-74
2021/06/14 04:21:19;;;;;;;502.55;364.52;;;;;;;;;;4972263;28;20467;-74
2021/06/14 04:23:45;;;;;;;502.75;368.15;;;;;;;;;;4984679;28;20019;-74
2021/06/14 04:26:12;;;;;;;505.65;364.85;;;;;;;;;;4984563;28;20029;-73
2021/06/14 04:28:43;;;;;;;510.02;374.05;;;;;;;;;;4987853;28;20034;-74
2021/06/14 04:31:09;;;;;;;507.80;370.45;;;;;;;;;;4974617;28;20041;-73
2021/06/14 04:33:35;;;;;;;518.33;376.17;;;;;;;;;;5019321;28;20447;-74
2021/06/14 04:36:05;;;;;;;520.10;384.13;;;;;;;;;;5031756;28;20109;-74
2021/06/14 04:38:31;;;;;;;515.28;385.35;;;;;;;;;;4969338;28;20411;-74
2021/06/14 04:40:57;;;;;;;510.67;384.17;;;;;;;;;;4982027;28;20030;-74
2021/06/14 04:43:23;;;;;;;512.10;385.33;;;;;;;;;;4980490;28;20037;-74
2021/06/14 04:45:49;;;;;;;509.10;378.92;;;;;;;;;;4970830;28;20018;-74
2021/06/14 04:48:15;;;;;;;509.35;386.38;;;;;;;;;;4989170;28;20037;-74
2021/06/14 04:50:54;;;;;;;508.13;384.65;;;;;;;;;;4972025;28;20023;-74
2021/06/14 04:53:20;;;;;;;507.90;385.55;;;;;;;;;;4983943;28;20497;-74
2021/06/14 04:55:46;;;;;;;506.38;386.40;;;;;;;;;;4973879;28;20030;-74
2021/06/14 04:58:12;;;;;;;507.63;385.73;;;;;;;;;;4974491;28;20090;-74
2021/06/14 05:00:38;;;;;;;508.77;390.35;;;;;;;;;;4992237;28;20385;-74
2021/06/14 05:03:05;;;;;;;507.70;387.27;;;;;;;;;;4980335;28;20152;-73
2021/06/14 05:05:31;;;;;;;508.13;391.13;;;;;;;;;;5013032;28;20014;-74
2021/06/14 05:07:57;;;;;;;507.02;389.73;;;;;;;;;;4971239;28;20022;-74
2021/06/14 05:10:23;;;;;;;511.77;398.63;;;;;;;;;;5018984;28;20037;-73
2021/06/14 05:12:49;;;;;;;511.23;400.17;;;;;;;;;;4987372;28;20030;-74
2021/06/14 05:15:22;;;;;;;513.30;397.55;;;;;;;;;;4985938;28;20466;-73
2021/06/14 05:17:48;;;;;;;510.38;399.20;;;;;;;;;;4996280;28;20034;-73
2021/06/14 05:20:16;;;;;;;511.60;402.83;;;;;;;;;;4982347;28;20041;-73
2021/06/14 05:22:42;;;;;;;512.00;404.35;;;;;;;;;;4986265;28;20339;-74
2021/06/14 05:25:08;;;;;;;509.77;401.33;;;;;;;;;;4983461;28;20035;-74
2021/06/14 05:27:34;;;;;;;511.30;405.33;;;;;;;;;;4972370;28;20038;-74
2021/06/14 05:30:00;;;;;;;515.67;409.52;;;;;;;;;;4969895;28;20023;-74
2021/06/14 05:32:26;;;;;;;510.10;404.40;;;;;;;;;;4984199;28;20538;-73
2021/06/14 05:34:52;;;;;;;507.27;405.13;;;;;;;;;;4985215;28;20031;-74
2021/06/14 05:37:24;;;;;;;530.65;416.00;;;;;;;;;;5057557;28;20040;-73
2021/06/14 05:39:50;;;;;;;511.67;413.30;;;;;;;;;;4965839;28;20045;-74
2021/06/14 05:42:17;;;;;;;508.55;409.52;;;;;;;;;;4974727;28;20422;-73
2021/06/14 05:44:43;;;;;;;509.65;415.67;;;;;;;;;;5026499;28;20030;-73
2021/06/14 05:47:09;;;;;;;509.05;413.35;;;;;;;;;;5002806;28;20025;-73
2021/06/14 05:49:36;;;;;;;514.03;424.20;;;;;;;;;;4975715;28;20047;-72
2021/06/14 05:52:03;;;;;;;516.53;425.83;;;;;;;;;;4967557;28;20030;-73
2021/06/14 05:54:29;;;;;;;520.15;428.10;;;;;;;;;;4979265;28;20120;-73
2021/06/14 05:56:55;;;;;;;522.20;439.40;;;;;;;;;;4983894;28;20030;-73
2021/06/14 05:59:21;;;;;;;550.13;461.90;;;;;;;;;;4986368;28;20072;-72
2021/06/14 06:01:47;;;;;;;545.55;459.25;;;;;;;;;;4962736;28;20034;-72
2021/06/14 06:04:14;;;;;;;537.58;450.92;;;;;;;;;;4987368;28;20022;-72
2021/06/14 06:06:40;;;;;;;521.80;439.40;;;;;;;;;;4989048;28;20117;-72
2021/06/14 06:09:06;;;;;;;524.90;442.17;;;;;;;;;;4987925;28;20114;-72
2021/06/14 06:11:32;;;;;;;519.72;438.05;;;;;;;;;;4989811;28;20029;-71
2021/06/14 06:13:58;;;;;;;523.55;443.02;;;;;;;;;;5001771;28;20049;-72
2021/06/14 06:16:24;;;;;;;522.72;444.33;;;;;;;;;;4984148;28;20478;-71
2021/06/14 06:18:50;;;;;;;521.78;441.27;;;;;;;;;;5023775;28;20027;-71
2021/06/14 06:21:16;;;;;;;517.25;441.92;;;;;;;;;;4967657;28;20589;-71
2021/06/14 06:23:42;;;;;;;514.35;438.25;;;;;;;;;;5005164;28;20387;-71
2021/06/14 06:26:08;;;;;;;519.63;442.65;;;;;;;;;;4984026;28;20034;-72
2021/06/14 06:28:34;;;;;;;523.85;449.38;;;;;;;;;;4983957;28;20032;-72
2021/06/14 06:31:00;;;;;;;534.42;458.65;;;;;;;;;;5010890;28;20065;-72
2021/06/14 06:33:26;;;;;;;518.83;447.90;;;;;;;;;;4997301;28;20144;-72
2021/06/14 06:35:52;;;;;;;521.60;452.60;;;;;;;;;;4989389;28;20141;-72
2021/06/14 06:38:18;;;;;;;514.28;448.42;;;;;;;;;;4984756;28;20090;-72
2021/06/14 06:40:44;;;;;;;520.20;456.13;;;;;;;;;;5008500;28;20023;-72
2021/06/14 06:43:10;;;;;;;528.95;458.65;;;;;;;;;;4991984;28;20034;-72
2021/06/14 06:45:37;;;;;;;514.97;452.75;;;;;;;;;;4990434;28;20022;-72
2021/06/14 06:48:03;;;;;;;517.17;450.63;;;;;;;;;;4990576;28;20034;-72
2021/06/14 06:50:29;;;;;;;519.20;459.58;;;;;;;;;;4969462;28;20034;-72
2021/06/14 06:52:55;;;;;;;516.47;454.08;;;;;;;;;;4990214;28;20339;-71
2021/06/14 06:55:22;;;;;;;526.03;467.80;;;;;;;;;;4991889;28;20034;-72
2021/06/14 06:57:48;;;;;;;529.63;466.55;;;;;;;;;;4988774;28;20030;-72
2021/06/14 07:00:15;;;;;;;522.05;461.40;;;;;;;;;;4967171;28;20026;-72
2021/06/14 07:02:41;;;;;;;524.10;465.33;;;;;;;;;;5004768;28;20037;-72
2021/06/14 07:05:08;;;;;;;529.80;471.27;;;;;;;;;;4991711;28;20030;-72
2021/06/14 07:07:34;;;;;;;525.97;467.83;;;;;;;;;;4984687;28;20045;-72
2021/06/14 07:10:04;;;;;;;529.03;471.02;;;;;;;;;;4990812;28;20022;-72
2021/06/14 07:12:33;;;;;;;529.60;471.13;;;;;;;;;;4977095;28;20031;-73
2021/06/14 07:14:59;;;;;;;542.78;483.38;;;;;;;;;;4984396;28;20039;-73
2021/06/14 07:17:25;;;;;;;537.33;478.30;;;;;;;;;;5051328;28;20059;-72
2021/06/14 07:19:51;;;;;;;540.97;481.75;;;;;;;;;;5052621;28;20119;-75
2021/06/14 07:22:17;;;;;;;546.47;487.02;;;;;;;;;;5049855;28;20037;-76
2021/06/14 07:24:43;;;;;;;538.83;480.10;;;;;;;;;;5031624;28;20020;-75
2021/06/14 07:27:09;;;;;;;547.25;488.52;;;;;;;;;;5033438;28;20677;-76
2021/06/14 07:29:35;;;;;;;541.45;482.92;;;;;;;;;;5036715;28;21035;-75
2021/06/14 07:32:01;;;;;;;542.53;483.70;;;;;;;;;;5051250;28;20037;-76
2021/06/14 07:34:27;;;;;;;551.38;492.48;;;;;;;;;;5032336;28;20626;-73
2021/06/14 07:36:54;;;;;;;545.47;485.73;;;;;;;;;;5028868;28;20055;-74
2021/06/14 07:39:21;;;;;;;548.03;489.20;;;;;;;;;;5049170;28;20124;-75
2021/06/14 07:41:47;;;;;;;542.08;484.08;;;;;;;;;;5028887;28;20067;-74
2021/06/14 07:44:14;;;;;;;551.35;492.92;;;;;;;;;;5051757;28;20041;-74
2021/06/14 07:46:40;;;;;;;542.95;485.33;;;;;;;;;;5050401;28;20028;-75
2021/06/14 07:49:06;;;;;;;543.03;485.30;;;;;;;;;;4997679;28;20050;-75
2021/06/14 07:51:32;;;;;;;542.28;484.63;;;;;;;;;;4967120;28;20027;-75
2021/06/14 07:53:58;;;;;;;552.67;494.50;;;;;;;;;;4966851;28;20022;-78
2021/06/14 07:56:25;;;;;;;558.38;500.27;;;;;;;;;;4984013;28;20041;-75
2021/06/14 07:58:51;;;;;;;551.13;493.27;;;;;;;;;;4987215;28;20095;-75
2021/06/14 08:01:17;;;;;;;551.78;494.35;;;;;;;;;;4964903;28;20034;-74
2021/06/14 08:03:46;;;;;;;548.08;491.05;;;;;;;;;;4981326;28;20023;-76
2021/06/14 08:06:12;;;;;;;552.75;494.65;;;;;;;;;;4983144;28;20030;-76
2021/06/14 08:08:38;;;;;;;557.30;499.60;;;;;;;;;;4986493;28;20722;-75
2021/06/14 08:11:07;;;;;;;556.08;498.38;;;;;;;;;;4961232;28;20033;-75
2021/06/14 08:13:33;;;;;;;545.00;487.88;;;;;;;;;;4985096;28;20259;-76
2021/06/14 08:16:00;;;;;;;551.35;493.88;;;;;;;;;;4967927;28;20037;-75
2021/06/14 08:18:38;;;;;;;560.88;503.02;;;;;;;;;;4985248;28;20371;-76
2021/06/14 08:26:15;;;;;;;547.08;489.95;;;;;;;;;;4978793;28;20390;-74
2021/06/14 08:28:41;;;;;;;567.05;508.90;;;;;;;;;;4961345;28;20031;-77
2021/06/14 08:31:09;;;;;;;566.65;508.83;;;;;;;;;;4978563;28;20042;-76
2021/06/14 08:33:35;;;;;;;567.53;509.58;;;;;;;;;;4978453;28;20122;-76
2021/06/14 08:36:01;;;;;;;564.92;507.10;;;;;;;;;;4963242;28;20041;-76
2021/06/14 08:38:27;;;;;;;565.30;507.52;;;;;;;;;;4977460;28;20488;-75
2021/06/14 08:40:54;;;;;;;568.90;510.98;;;;;;;;;;4979382;28;20019;-76
2021/06/14 08:43:20;;;;;;;568.22;510.35;;;;;;;;;;4968076;28;20030;-74
2021/06/14 08:45:48;;;;;;;570.88;513.25;;;;;;;;;;4984281;28;20386;-76
2021/06/14 08:48:15;;;;;;;573.60;515.85;;;;;;;;;;4965087;28;20892;-75
2021/06/14 08:50:41;;;;;;;569.97;512.33;;;;;;;;;;4966305;28;20023;-75
2021/06/14 08:53:23;;;;;;;579.03;520.92;;;;;;;;;;4979985;28;20038;-76
2021/06/14 08:55:49;;;;;;;573.00;515.35;;;;;;;;;;4962804;28;20038;-74
2021/06/14 08:58:15;;;;;;;569.75;512.22;;;;;;;;;;4972957;28;20040;-76
2021/06/14 09:00:41;;;;;;;587.22;528.78;;;;;;;;;;4982474;28;20038;-75
2021/06/14 09:03:07;;;;;;;588.70;530.47;;;;;;;;;;4982213;28;20466;-75
2021/06/14 09:05:33;;;;;;;588.85;530.92;;;;;;;;;;4965861;28;20071;-75
2021/06/14 09:08:04;;;;;;;598.58;540.17;;;;;;;;;;4966998;28;20043;-77
2021/06/14 09:10:32;;;;;;;599.50;541.38;;;;;;;;;;4979283;28;20470;-75
2021/06/14 09:13:16;;;;;;;605.42;547.10;;;;;;;;;;4980987;28;20030;-74
2021/06/14 09:15:44;;;;;;;601.92;544.03;;;;;;;;;;4963575;28;20061;-74
2021/06/14 09:18:21;;;;;;;827.70;745.85;;;;;;;;;;4976916;28;20022;-76
2021/06/14 09:20:54;;;;;;;665.10;602.30;;;;;;;;;;4978801;28;20122;-75
2021/06/14 09:23:20;;;;;;;647.78;587.35;;;;;;;;;;4975666;28;20027;-75
2021/06/14 09:25:47;;;;;;;652.15;591.90;;;;;;;;;;4980414;28;20048;-74
2021/06/14 09:28:14;;;;;;;652.38;592.08;;;;;;;;;;4976545;28;20033;-75
2021/06/14 09:30:40;;;;;;;652.60;592.30;;;;;;;;;;4979222;28;20050;-78
2021/06/14 09:33:08;;;;;;;665.13;604.00;;;;;;;;;;4969365;28;20034;-76
2021/06/14 09:35:35;;;;;;;672.20;610.85;;;;;;;;;;4978273;28;20058;-75
2021/06/14 09:38:01;;;;;;;682.45;620.95;;;;;;;;;;4964974;28;20034;-75
2021/06/14 09:40:28;;;;;;;664.78;604.55;;;;;;;;;;4984266;28;20018;-75
2021/06/14 09:42:55;;;;;;;659.38;599.58;;;;;;;;;;4983141;28;20031;-75
2021/06/14 09:45:22;;;;;;;672.92;611.90;;;;;;;;;;4992540;28;20661;-74
2021/06/14 09:47:49;;;;;;;687.58;626.42;;;;;;;;;;4976978;28;20062;-75
2021/06/14 09:50:22;;;;;;;720.38;658.20;;;;;;;;;;4973867;28;20034;-75
2021/06/14 09:52:50;;;;;;;807.42;739.95;;;;;;;;;;4981304;28;20054;-75
2021/06/14 09:55:17;;;;;;;1024.85;933.63;;;;;;;;;;4983242;28;20512;-77
2021/06/14 09:57:43;;;;;;;787.15;722.58;;;;;;;;;;4977107;28;20026;-76
2021/06/14 10:00:17;;;;;;;774.65;711.38;;;;;;;;;;4975944;28;20030;-76
2021/06/14 10:02:43;;;;;;;991.92;903.95;;;;;;;;;;4962620;28;20053;-76
2021/06/14 10:05:19;;;;;;;782.40;719.60;;;;;;;;;;4964163;28;20026;-76
2021/06/14 10:07:46;;;;;;;789.70;726.85;;;;;;;;;;4964420;28;20041;-76
2021/06/14 10:10:18;;;;;;;814.22;748.38;;;;;;;;;;4959656;28;20030;-76
2021/06/14 10:12:48;;;;;;;856.10;791.22;;;;;;;;;;4986005;28;20052;-76
2021/06/14 10:15:14;;;;;;;843.85;779.53;;;;;;;;;;4971854;28;20458;-76
2021/06/14 10:17:41;;;;;;;851.15;787.03;;;;;;;;;;4975518;28;20038;-76
2021/06/14 10:20:18;;;;;;;856.17;792.10;;;;;;;;;;4981560;28;20031;-75
2021/06/14 10:22:45;;;;;;;856.95;793.13;;;;;;;;;;4978888;28;20049;-76
2021/06/14 10:25:12;;;;;;;865.88;801.70;;;;;;;;;;4976378;28;20015;-76
2021/06/14 10:27:38;;;;;;;880.28;815.53;;;;;;;;;;4958518;28;20394;-76
2021/06/14 10:30:08;;;;;;;863.00;799.33;;;;;;;;;;4978158;28;20035;-75
2021/06/14 10:32:36;;;;;;;877.40;812.67;;;;;;;;;;4961059;28;20729;-77
2021/06/14 10:35:03;;;;;;;865.20;801.30;;;;;;;;;;4975761;28;20498;-76
2021/06/14 10:37:29;;;;;;;910.63;843.95;;;;;;;;;;4978452;28;20513;-76
2021/06/14 10:40:01;;;;;;;898.13;832.47;;;;;;;;;;4985364;28;20378;-76
2021/06/14 10:42:28;;;;;;;899.72;833.67;;;;;;;;;;4979217;28;20023;-76
2021/06/14 10:45:00;;;;;;;911.15;844.25;;;;;;;;;;4979501;28;20187;-75
2021/06/14 10:47:26;;;;;;;863.83;799.55;;;;;;;;;;4968428;28;20034;-76
2021/06/14 10:49:55;;;;;;;866.85;801.95;;;;;;;;;;4976489;28;20493;-75
2021/06/14 10:52:22;;;;;;;869.88;804.25;;;;;;;;;;4988202;28;20091;-76
2021/06/14 10:54:48;;;;;;;851.60;786.60;;;;;;;;;;4982609;28;20404;-76
2021/06/14 10:57:14;;;;;;;843.17;778.10;;;;;;;;;;4972461;28;20111;-75
2021/06/14 10:59:41;;;;;;;835.88;771.10;;;;;;;;;;4962888;28;20031;-76
2021/06/14 11:02:08;;;;;;;830.65;766.25;;;;;;;;;;4983447;28;20027;-76
2021/06/14 11:04:35;;;;;;;846.58;781.17;;;;;;;;;;4975551;28;20026;-76
2021/06/14 11:07:01;;;;;;;881.78;814.03;;;;;;;;;;5004426;28;20807;-76
2021/06/14 11:09:43;;;;;;;840.75;775.67;;;;;;;;;;4987817;28;20122;-75
2021/06/14 11:12:11;;;;;;;1430.40;999.90;;;;;;;;;;4977373;28;21485;-75
2021/06/14 11:14:42;;;;;;;850.95;785.38;;;;;;;;;;4982864;28;20093;-75
2021/06/14 11:17:16;;;;;;;775.50;714.60;;;;;;;;;;4986335;28;20440;-76
2021/06/14 11:19:42;;;;;;;816.30;752.53;;;;;;;;;;4981507;28;20499;-76
2021/06/14 11:22:08;;;;;;;799.72;736.92;;;;;;;;;;4995748;28;21014;-76
2021/06/14 11:24:36;;;;;;;775.97;714.55;;;;;;;;;;4991533;28;20018;-76
2021/06/14 11:27:02;;;;;;;792.08;729.70;;;;;;;;;;4976324;28;20402;-76
2021/06/14 11:29:28;;;;;;;800.72;737.58;;;;;;;;;;4969742;28;20022;-76
2021/06/14 11:32:02;;;;;;;865.65;798.70;;;;;;;;;;4968577;28;20040;-76
2021/06/14 11:34:38;;;;;;;888.25;819.80;;;;;;;;;;4975074;28;20030;-75
2021/06/14 11:37:04;;;;;;;1377.82;999.90;;;;;;;;;;4985049;28;20042;-75
2021/06/14 11:39:30;;;;;;;861.00;794.35;;;;;;;;;;4960898;28;20026;-76
2021/06/14 11:42:08;;;;;;;878.97;811.50;;;;;;;;;;4966715;28;20077;-76
2021/06/14 11:44:34;;;;;;;825.47;761.45;;;;;;;;;;4984752;28;20031;-76
2021/06/14 11:47:00;;;;;;;820.92;756.78;;;;;;;;;;4971409;28;20089;-75
2021/06/14 11:49:36;;;;;;;874.92;809.03;;;;;;;;;;4985350;28;20030;-76
2021/06/14 11:52:04;;;;;;;867.78;802.50;;;;;;;;;;4968544;28;20496;-75
2021/06/14 11:54:30;;;;;;;926.37;858.17;;;;;;;;;;4983411;28;20019;-75
2021/06/14 11:56:59;;;;;;;925.30;857.67;;;;;;;;;;4982119;28;20042;-76
2021/06/14 11:59:32;;;;;;;1018.22;945.03;;;;;;;;;;4969396;28;20141;-76
2021/06/14 12:01:58;;;;;;;868.30;804.78;;;;;;;;;;4992237;28;20046;-75
2021/06/14 12:04:24;;;;;;;872.92;809.03;;;;;;;;;;4969892;28;20026;-76
2021/06/14 12:06:52;;;;;;;931.75;864.85;;;;;;;;;;4969327;28;20026;-75
2021/06/14 12:09:26;;;;;;;967.47;898.60;;;;;;;;;;4966900;28;20041;-76
2021/06/14 12:12:00;;;;;;;980.72;910.85;;;;;;;;;;4969384;28;20027;-76
2021/06/14 12:14:28;;;;;;;1076.57;997.88;;;;;;;;;;4987590;28;20042;-75
2021/06/14 12:16:58;;;;;;;961.97;893.40;;;;;;;;;;4969886;28;20043;-76
2021/06/14 12:19:28;;;;;;;989.33;918.95;;;;;;;;;;4989271;28;20117;-76
2021/06/14 12:21:55;;;;;;;1121.07;999.90;;;;;;;;;;4985613;28;20022;-78
2021/06/14 12:24:21;;;;;;;943.47;875.78;;;;;;;;;;4957593;28;20447;-77
2021/06/14 12:26:47;;;;;;;965.20;895.60;;;;;;;;;;4977264;28;20121;-77
2021/06/14 12:29:19;;;;;;;1024.93;951.95;;;;;;;;;;4985416;28;20066;-77
2021/06/14 12:31:45;;;;;;;1025.38;951.90;;;;;;;;;;4975994;28;20121;-76
2021/06/14 12:34:11;;;;;;;952.92;884.53;;;;;;;;;;4980002;28;20550;-76
2021/06/14 12:36:37;;;;;;;1024.80;951.50;;;;;;;;;;4979051;28;20042;-77
2021/06/14 12:39:04;;;;;;;987.83;916.92;;;;;;;;;;4981039;28;20031;-76
2021/06/14 12:41:30;;;;;;;1041.40;967.50;;;;;;;;;;4958480;28;20425;-78
2021/06/14 12:43:58;;;;;;;1116.15;999.90;;;;;;;;;;4960663;28;20026;-77
2021/06/14 12:46:36;;;;;;;1142.78;999.90;;;;;;;;;;4977725;28;20027;-77
2021/06/14 12:49:03;;;;;;;1160.72;999.90;;;;;;;;;;4974382;28;20094;-77
2021/06/14 12:51:33;;;;;;;1062.78;989.30;;;;;;;;;;4959199;28;20042;-77
2021/06/14 12:53:59;;;;;;;1454.00;999.90;;;;;;;;;;4973502;28;20121;-75
2021/06/14 12:56:25;;;;;;;1053.95;980.90;;;;;;;;;;4982052;28;20080;-77
2021/06/14 12:58:57;;;;;;;1189.22;999.90;;;;;;;;;;4961841;28;20033;-77
2021/06/14 13:01:24;;;;;;;1093.55;999.90;;;;;;;;;;4977706;28;20031;-77
2021/06/14 13:03:50;;;;;;;1219.93;999.90;;;;;;;;;;4977732;28;20019;-75
2021/06/14 13:06:16;;;;;;;1227.93;999.90;;;;;;;;;;4961117;28;20084;-77
2021/06/14 13:08:45;;;;;;;1164.85;999.90;;;;;;;;;;4977408;28;20035;-78
2021/06/14 13:11:11;;;;;;;1191.68;999.90;;;;;;;;;;4974663;28;20621;-76
2021/06/14 13:13:42;;;;;;;1105.97;999.90;;;;;;;;;;4982718;28;20502;-77
2021/06/14 13:16:09;;;;;;;1267.57;999.90;;;;;;;;;;4974374;28;20552;-75
2021/06/14 13:18:36;;;;;;;1097.13;999.90;;;;;;;;;;4977307;28;20492;-78
2021/06/14 13:21:07;;;;;;;1270.20;999.90;;;;;;;;;;4976975;28;20026;-78
2021/06/14 13:23:33;;;;;;;1232.28;999.90;;;;;;;;;;4953909;28;20394;-78
2021/06/14 13:26:00;;;;;;;1218.60;999.90;;;;;;;;;;4959540;28;20031;-77
2021/06/14 13:28:42;;;;;;;1225.85;999.90;;;;;;;;;;4973652;28;20080;-76
2021/06/14 13:31:10;;;;;;;1170.80;999.90;;;;;;;;;;4962044;28;20042;-77
2021/06/14 13:34:22;;;;;;;1310.63;999.90;;;;;;;;;;4976111;28;20515;-75
2021/06/14 13:36:53;;;;;;;1280.72;999.90;;;;;;;;;;4976799;28;20627;-73
2021/06/14 13:39:20;;;;;;;1242.50;999.90;;;;;;;;;;4978041;28;20121;-77
2021/06/14 13:41:48;;;;;;;1157.43;999.90;;;;;;;;;;4979462;28;20478;-77
2021/06/14 13:44:15;;;;;;;1242.65;999.90;;;;;;;;;;4979677;28;20026;-77
2021/06/14 13:46:42;;;;;;;939.15;870.53;;;;;;;;;;4961570;28;20034;-75
2021/06/14 13:49:08;;;;;;;897.35;831.17;;;;;;;;;;4961678;28;20050;-74
2021/06/14 13:51:34;;;;;;;885.80;820.15;;;;;;;;;;4963611;28;20440;-77
2021/06/14 13:54:00;;;;;;;1024.85;950.20;;;;;;;;;;4960327;28;20083;-75
2021/06/14 13:56:33;;;;;;;843.28;779.97;;;;;;;;;;4976510;28;20026;-73
2021/06/14 13:59:00;;;;;;;850.97;787.47;;;;;;;;;;4977774;28;20053;-73
2021/06/14 14:01:28;;;;;;;841.35;778.08;;;;;;;;;;4959242;28;20031;-75